createdAt,value
2022-08-11T00:00:09.286Z,23.68
2022-08-11T00:03:00.280Z,23.68
2022-08-11T00:05:31.138Z,23.69
2022-08-11T00:08:01.982Z,23.67
2022-08-11T00:10:32.931Z,23.67
2022-08-11T00:13:07.785Z,23.62
2022-08-11T00:15:41.749Z,23.53
2022-08-11T00:18:15.495Z,23.47
2022-08-11T00:20:46.417Z,23.41
2022-08-11T00:23:21.098Z,23.39
2022-08-11T00:25:55.351Z,23.37
2022-08-11T00:28:26.979Z,23.36
2022-08-11T00:31:01.850Z,23.36
2022-08-11T00:33:44.184Z,23.25
2022-08-11T00:36:23.434Z,23.15
2022-08-11T00:39:05.476Z,23.00
2022-08-11T00:41:40.840Z,22.80
2022-08-11T00:44:24.963Z,22.62
2022-08-11T00:46:59.396Z,22.47
2022-08-11T00:49:41.731Z,22.40
2022-08-11T00:52:15.124Z,22.39
2022-08-11T00:55:11.156Z,22.39
2022-08-11T00:58:04.824Z,22.33
2022-08-11T01:00:44.241Z,22.26
2022-08-11T01:03:23.413Z,22.22
2022-08-11T01:05:59.801Z,22.21
2022-08-11T01:08:46.721Z,22.20
2022-08-11T01:11:26.917Z,22.17
2022-08-11T01:14:08.847Z,22.14
2022-08-11T01:16:47.492Z,22.10
2022-08-11T01:19:34.601Z,22.04
2022-08-11T01:22:47.556Z,22.00
2022-08-11T01:25:56.879Z,21.98
2022-08-11T01:28:41.827Z,21.94
2022-08-11T01:31:23.730Z,21.90
2022-08-11T01:34:16.838Z,21.89
2022-08-11T01:37:03.855Z,21.89
2022-08-11T01:39:53.891Z,21.90
2022-08-11T01:42:59.561Z,21.97
2022-08-11T01:45:37.930Z,22.02
2022-08-11T01:48:15.819Z,22.05
2022-08-11T01:50:54.963Z,22.07
2022-08-11T01:53:31.021Z,22.07
2022-08-11T01:56:06.642Z,22.07
2022-08-11T01:58:44.473Z,22.07
2022-08-11T02:01:36.919Z,22.02
2022-08-11T02:04:13.052Z,21.98
2022-08-11T02:06:56.111Z,21.93
2022-08-11T02:09:35.652Z,21.90
2022-08-11T02:12:11.894Z,21.86
2022-08-11T02:15:04.645Z,21.86
2022-08-11T02:17:52.672Z,21.83
2022-08-11T02:20:44.960Z,21.85
2022-08-11T02:24:06.219Z,21.90
2022-08-11T02:26:37.105Z,21.91
2022-08-11T02:29:20.235Z,21.88
2022-08-11T02:32:29.729Z,21.87
2022-08-11T02:35:14.137Z,21.88
2022-08-11T02:37:59.282Z,21.89
2022-08-11T02:40:32.756Z,21.92
2022-08-11T02:43:11.488Z,21.83
2022-08-11T02:45:54.934Z,21.72
2022-08-11T02:48:50.968Z,21.64
2022-08-11T02:51:27.574Z,21.56
2022-08-11T02:54:03.561Z,21.55
2022-08-11T02:56:40.901Z,21.54
2022-08-11T02:59:31.795Z,21.57
2022-08-11T03:02:06.359Z,21.60
2022-08-11T03:04:45.981Z,21.59
2022-08-11T03:07:28.144Z,21.59
2022-08-11T03:10:04.269Z,21.55
2022-08-11T03:13:00.276Z,21.53
2022-08-11T03:16:03.814Z,21.54
2022-08-11T03:18:36.784Z,21.57
2022-08-11T03:21:11.496Z,21.59
2022-08-11T03:23:49.043Z,21.56
2022-08-11T03:26:25.835Z,21.55
2022-08-11T03:29:09.144Z,21.55
2022-08-11T03:31:44.678Z,21.56
2022-08-11T03:34:18.775Z,21.49
2022-08-11T03:37:17.117Z,21.47
2022-08-11T03:39:56.680Z,21.43
2022-08-11T03:42:31.661Z,21.44
2022-08-11T03:45:12.133Z,21.40
2022-08-11T03:47:59.239Z,21.42
2022-08-11T03:50:43.619Z,21.36
2022-08-11T03:53:43.005Z,21.33
2022-08-11T03:56:28.546Z,21.30
2022-08-11T03:59:17.398Z,21.28
2022-08-11T04:01:56.928Z,21.25
2022-08-11T04:04:45.157Z,21.26
2022-08-11T04:07:35.853Z,21.32
2022-08-11T04:10:16.128Z,21.34
2022-08-11T04:13:01.177Z,21.39
2022-08-11T04:15:56.389Z,21.41
2022-08-11T04:18:44.702Z,21.46
2022-08-11T04:21:35.394Z,21.51
2022-08-11T04:24:38.463Z,21.59
2022-08-11T04:27:36.940Z,21.67
2022-08-11T04:30:14.050Z,21.75
2022-08-11T04:33:01.228Z,21.79
2022-08-11T04:35:37.718Z,21.82
2022-08-11T04:38:28.130Z,21.83
2022-08-11T04:41:18.328Z,21.87
2022-08-11T04:44:18.996Z,21.91
2022-08-11T04:47:00.441Z,21.90
2022-08-11T04:49:53.345Z,21.99
2022-08-11T04:53:01.768Z,22.08
2022-08-11T04:55:55.076Z,22.15
2022-08-11T04:58:44.251Z,22.18
2022-08-11T05:01:43.358Z,22.22
2022-08-11T05:04:45.428Z,22.30
2022-08-11T05:07:27.806Z,22.36
2022-08-11T05:10:17.917Z,22.31
2022-08-11T05:12:50.080Z,22.29
2022-08-11T05:15:42.961Z,22.34
2022-08-11T05:18:34.934Z,22.38
2022-08-11T05:21:24.621Z,22.38
2022-08-11T05:24:15.461Z,22.34
2022-08-11T05:27:06.119Z,22.30
2022-08-11T05:30:05.127Z,22.30
2022-08-11T05:33:00.974Z,22.37
2022-08-11T05:36:02.143Z,22.50
2022-08-11T05:38:47.713Z,22.65
2022-08-11T05:41:38.385Z,22.79
2022-08-11T05:44:29.243Z,22.93
2022-08-11T05:47:17.439Z,23.04
2022-08-11T05:50:08.860Z,23.17
2022-08-11T05:53:09.147Z,23.33
2022-08-11T05:56:03.253Z,23.49
2022-08-11T05:58:42.331Z,23.63
2022-08-11T06:01:15.221Z,23.75
2022-08-11T06:04:04.060Z,23.84
2022-08-11T06:06:34.871Z,23.96
2022-08-11T06:09:05.804Z,24.08
2022-08-11T06:11:44.930Z,24.17
2022-08-11T06:14:36.458Z,24.28
2022-08-11T06:17:11.993Z,24.39
2022-08-11T06:19:43.674Z,24.47
2022-08-11T06:22:14.485Z,24.54
2022-08-11T06:24:48.036Z,24.61
2022-08-11T06:27:21.593Z,24.66
2022-08-11T06:29:55.874Z,24.74
2022-08-11T06:32:29.779Z,24.85
2022-08-11T06:35:12.286Z,24.92
2022-08-11T06:37:46.859Z,25.02
2022-08-11T06:40:22.616Z,25.19
2022-08-11T06:42:55.181Z,25.45
2022-08-11T06:45:33.419Z,25.67
2022-08-11T06:48:10.471Z,25.90
2022-08-11T06:51:01.633Z,26.16
2022-08-11T06:53:34.700Z,26.42
2022-08-11T06:56:36.017Z,26.62
2022-08-11T06:59:26.497Z,26.74
2022-08-11T07:02:00.202Z,26.99
2022-08-11T07:04:34.440Z,27.22
2022-08-11T07:07:29.662Z,27.31
2022-08-11T07:10:26.174Z,27.37
2022-08-11T07:13:44.575Z,27.46
2022-08-11T07:16:13.910Z,27.66
2022-08-11T07:19:12.528Z,27.66
2022-08-11T07:22:07.458Z,27.79
2022-08-11T07:25:02.583Z,28.04
2022-08-11T07:27:55.495Z,28.33
2022-08-11T07:30:30.351Z,28.45
2022-08-11T07:33:02.252Z,28.52
2022-08-11T07:35:37.677Z,28.63
2022-08-11T07:38:13.500Z,28.72
2022-08-11T07:40:50.163Z,28.80
2022-08-11T07:43:21.028Z,28.93
2022-08-11T07:46:11.916Z,29.11
2022-08-11T07:49:00.493Z,29.16
2022-08-11T07:51:48.752Z,29.23
2022-08-11T07:54:22.056Z,29.34
2022-08-11T07:57:09.381Z,29.46
2022-08-11T08:00:04.207Z,29.48
2022-08-11T08:02:56.310Z,29.59
2022-08-11T08:05:46.371Z,29.65
2022-08-11T08:08:34.964Z,29.67
2022-08-11T08:11:27.500Z,29.56
2022-08-11T08:14:18.447Z,29.42
2022-08-11T08:17:07.755Z,29.37
2022-08-11T08:19:41.313Z,29.37
2022-08-11T08:22:37.905Z,29.42
2022-08-11T08:25:04.815Z,29.28
2022-08-11T08:27:38.832Z,29.23
2022-08-11T08:30:28.205Z,29.24
2022-08-11T08:33:01.187Z,29.13
2022-08-11T08:35:33.678Z,29.14
2022-08-11T08:38:04.657Z,29.19
2022-08-11T08:40:35.539Z,29.33
2022-08-11T08:43:08.666Z,29.55
2022-08-11T08:45:41.601Z,29.91
2022-08-11T08:48:12.775Z,30.22
2022-08-11T08:51:13.587Z,30.49
2022-08-11T08:53:52.531Z,30.85
2022-08-11T08:56:28.415Z,31.13
2022-08-11T08:59:02.494Z,31.46
2022-08-11T09:01:35.330Z,31.82
2022-08-11T09:04:11.376Z,32.11
2022-08-11T09:06:44.454Z,32.27
2022-08-11T09:09:24.919Z,32.38
2022-08-11T09:11:56.880Z,32.40
2022-08-11T09:14:49.121Z,32.30
2022-08-11T09:17:20.846Z,32.20
2022-08-11T09:19:58.909Z,32.45
2022-08-11T09:23:10.293Z,32.66
2022-08-11T09:26:02.208Z,32.62
2022-08-11T09:28:32.999Z,32.62
2022-08-11T09:31:07.053Z,32.43
2022-08-11T09:33:37.957Z,32.36
2022-08-11T09:36:30.624Z,32.45
2022-08-11T09:39:19.581Z,32.54
2022-08-11T09:41:55.667Z,32.40
2022-08-11T09:44:50.946Z,32.02
2022-08-11T09:47:23.272Z,31.78
2022-08-11T09:49:56.340Z,31.62
2022-08-11T09:52:27.070Z,31.53
2022-08-11T09:54:59.253Z,31.53
2022-08-11T09:57:47.681Z,31.59
2022-08-11T10:00:21.056Z,31.75
2022-08-11T10:02:53.275Z,31.82
2022-08-11T10:05:42.132Z,31.89
2022-08-11T10:08:13.576Z,31.71
2022-08-11T10:10:44.459Z,31.48
2022-08-11T10:14:31.392Z,31.42
2022-08-11T10:16:15.235Z,31.82
2022-08-11T10:18:53.414Z,32.25
2022-08-11T10:21:29.532Z,32.33
2022-08-11T10:24:18.918Z,32.33
2022-08-11T10:27:00.309Z,32.44
2022-08-11T10:29:51.265Z,32.53
2022-08-11T10:32:58.670Z,32.47
2022-08-11T10:35:31.480Z,32.47
2022-08-11T10:38:06.316Z,32.38
2022-08-11T10:41:10.963Z,32.08
2022-08-11T10:44:01.192Z,32.15
2022-08-11T10:46:50.872Z,32.37
2022-08-11T10:49:21.640Z,32.43
2022-08-11T10:52:11.735Z,32.28
2022-08-11T10:55:00.001Z,32.22
2022-08-11T10:58:04.590Z,32.20
2022-08-11T11:00:36.879Z,32.19
2022-08-11T11:03:22.635Z,32.17
2022-08-11T11:06:28.561Z,32.11
2022-08-11T11:08:58.753Z,32.05
2022-08-11T11:11:54.224Z,32.14
2022-08-11T11:14:46.794Z,32.20
2022-08-11T11:17:42.044Z,32.13
2022-08-11T11:20:36.381Z,32.07
2022-08-11T11:23:08.104Z,31.97
2022-08-11T11:26:06.065Z,31.90
2022-08-11T11:29:05.678Z,31.85
2022-08-11T11:31:38.072Z,31.85
2022-08-11T11:34:17.090Z,31.83
2022-08-11T11:36:53.764Z,31.80
2022-08-11T11:39:25.595Z,31.86
2022-08-11T11:41:59.665Z,31.88
2022-08-11T11:44:31.707Z,31.96
2022-08-11T11:47:08.127Z,31.99
2022-08-11T11:49:40.004Z,31.99
2022-08-11T11:52:10.867Z,31.94
2022-08-11T11:54:41.808Z,31.84
2022-08-11T11:57:30.284Z,31.71
2022-08-11T12:00:18.867Z,31.79
2022-08-11T12:02:49.940Z,32.02
2022-08-11T12:05:20.661Z,32.18
2022-08-11T12:08:12.736Z,32.28
2022-08-11T12:10:46.790Z,32.77
2022-08-11T12:13:35.781Z,33.09
2022-08-11T12:16:35.015Z,33.25
2022-08-11T12:18:58.637Z,33.45
2022-08-11T12:21:29.713Z,33.69
2022-08-11T12:24:19.315Z,33.81
2022-08-11T12:27:16.597Z,33.86
2022-08-11T12:29:54.438Z,33.70
2022-08-11T12:32:27.394Z,33.39
2022-08-11T12:34:58.299Z,33.16
2022-08-11T12:37:31.481Z,33.04
2022-08-11T12:40:43.183Z,32.93
2022-08-11T12:43:38.178Z,32.81
2022-08-11T12:46:10.308Z,32.78
2022-08-11T12:49:02.939Z,32.66
2022-08-11T12:52:12.522Z,32.51
2022-08-11T12:54:57.992Z,32.21
2022-08-11T12:57:47.652Z,32.06
2022-08-11T13:00:36.445Z,31.93
2022-08-11T13:03:25.742Z,31.90
2022-08-11T13:05:57.246Z,31.90
2022-08-11T13:08:29.736Z,31.95
2022-08-11T13:11:18.620Z,32.09
2022-08-11T13:13:55.648Z,32.29
2022-08-11T13:16:29.925Z,32.54
2022-08-11T13:19:01.835Z,32.82
2022-08-11T13:21:32.706Z,33.11
2022-08-11T13:24:03.821Z,33.32
2022-08-11T13:26:47.036Z,33.53
2022-08-11T13:29:22.474Z,34.00
2022-08-11T13:31:53.555Z,34.46
2022-08-11T13:34:24.763Z,34.73
2022-08-11T13:36:56.215Z,34.99
2022-08-11T13:39:27.640Z,35.26
2022-08-11T13:41:59.699Z,35.34
2022-08-11T13:44:31.559Z,35.31
2022-08-11T13:47:05.955Z,35.38
2022-08-11T13:49:40.316Z,35.39
2022-08-11T13:52:14.298Z,35.34
2022-08-11T13:54:48.193Z,35.27
2022-08-11T13:58:08.506Z,35.32
2022-08-11T14:00:12.951Z,35.61
2022-08-11T14:02:47.039Z,36.03
2022-08-11T14:05:18.566Z,36.36
2022-08-11T14:07:50.656Z,36.68
2022-08-11T14:10:23.510Z,36.97
2022-08-11T14:13:13.466Z,37.28
2022-08-11T14:15:46.312Z,37.36
2022-08-11T14:18:19.688Z,36.99
2022-08-11T14:21:08.427Z,36.60
2022-08-11T14:23:40.540Z,36.00
2022-08-11T14:26:31.910Z,35.41
2022-08-11T14:29:03.690Z,34.93
2022-08-11T14:31:35.296Z,34.67
2022-08-11T14:34:07.422Z,34.38
2022-08-11T14:36:38.735Z,34.23
2022-08-11T14:39:13.324Z,34.19
2022-08-11T14:42:10.830Z,34.24
2022-08-11T14:45:02.385Z,34.38
2022-08-11T14:47:34.126Z,34.54
2022-08-11T14:50:13.510Z,34.86
2022-08-11T14:52:53.104Z,35.12
2022-08-11T14:55:42.773Z,35.10
2022-08-11T14:58:15.957Z,35.00
2022-08-11T15:00:49.097Z,34.88
2022-08-11T15:03:20.058Z,34.64
2022-08-11T15:05:57.753Z,34.34
2022-08-11T15:08:49.229Z,34.10
2022-08-11T15:11:37.144Z,34.02
2022-08-11T15:14:10.093Z,34.06
2022-08-11T15:17:00.276Z,34.04
2022-08-11T15:19:40.655Z,33.91
2022-08-11T15:22:33.504Z,33.80
2022-08-11T15:25:04.266Z,33.72
2022-08-11T15:27:52.412Z,33.76
2022-08-11T15:30:45.320Z,33.79
2022-08-11T15:33:34.088Z,33.79
2022-08-11T15:36:23.123Z,33.76
2022-08-11T15:38:55.774Z,33.69
2022-08-11T15:41:45.645Z,33.58
2022-08-11T15:45:05.329Z,33.47
2022-08-11T15:47:41.317Z,33.32
2022-08-11T15:50:15.446Z,33.24
2022-08-11T15:52:48.288Z,33.18
2022-08-11T15:55:20.433Z,33.12
2022-08-11T15:58:09.228Z,32.82
2022-08-11T16:01:03.719Z,32.50
2022-08-11T16:04:07.677Z,32.17
2022-08-11T16:06:47.803Z,31.89
2022-08-11T16:09:24.058Z,31.76
2022-08-11T16:11:57.020Z,31.65
2022-08-11T16:14:45.410Z,31.54
2022-08-11T16:17:17.740Z,31.42
2022-08-11T16:19:50.217Z,31.37
2022-08-11T16:22:32.795Z,31.35
2022-08-11T16:27:04.809Z,31.35
2022-08-11T16:27:58.804Z,31.41
2022-08-11T16:30:31.944Z,31.40
2022-08-11T16:33:22.708Z,31.30
2022-08-11T16:36:17.616Z,31.17
2022-08-11T16:38:53.991Z,31.11
2022-08-11T16:41:43.387Z,31.02
2022-08-11T16:44:37.602Z,30.90
2022-08-11T16:47:11.924Z,30.86
2022-08-11T16:49:52.519Z,30.85
2022-08-11T16:52:24.418Z,30.72
2022-08-11T16:54:55.416Z,30.58
2022-08-11T16:57:47.527Z,30.47
2022-08-11T17:00:18.774Z,30.38
2022-08-11T17:03:08.852Z,30.31
2022-08-11T17:06:02.156Z,30.23
2022-08-11T17:08:56.901Z,30.20
2022-08-11T17:11:47.922Z,30.10
2022-08-11T17:14:34.979Z,30.01
2022-08-11T17:17:12.905Z,29.94
2022-08-11T17:20:41.239Z,29.91
2022-08-11T17:23:02.104Z,29.88
2022-08-11T17:25:59.921Z,29.89
2022-08-11T17:28:26.214Z,29.92
2022-08-11T17:31:21.881Z,29.93
2022-08-11T17:34:10.838Z,29.97
2022-08-11T17:36:45.496Z,29.98
2022-08-11T17:39:16.879Z,30.00
2022-08-11T17:42:05.985Z,30.00
2022-08-11T17:44:54.289Z,29.98
2022-08-11T17:47:46.779Z,29.92
2022-08-11T17:50:18.287Z,29.77
2022-08-11T17:53:07.213Z,29.72
2022-08-11T17:55:55.438Z,29.71
2022-08-11T17:58:46.233Z,29.60
2022-08-11T18:01:18.367Z,29.53
2022-08-11T18:03:53.263Z,29.50
2022-08-11T18:06:34.561Z,29.45
2022-08-11T18:09:24.091Z,29.39
2022-08-11T18:12:13.169Z,29.29
2022-08-11T18:15:03.353Z,29.22
2022-08-11T18:17:51.727Z,29.21
2022-08-11T18:20:40.212Z,29.19
2022-08-11T18:23:45.841Z,29.13
2022-08-11T18:26:36.798Z,29.10
2022-08-11T18:29:27.938Z,29.07
2022-08-11T18:32:21.095Z,28.95
2022-08-11T18:35:11.949Z,28.85
2022-08-11T18:38:02.911Z,28.77
2022-08-11T18:40:51.448Z,28.63
2022-08-11T18:43:43.849Z,28.53
2022-08-11T18:46:35.066Z,28.41
2022-08-11T18:49:37.364Z,28.35
2022-08-11T18:52:35.817Z,28.31
2022-08-11T18:55:24.983Z,28.22
2022-08-11T18:58:13.393Z,28.14
2022-08-11T19:01:01.849Z,28.10
2022-08-11T19:03:50.329Z,28.05
2022-08-11T19:06:41.369Z,27.95
2022-08-11T19:09:31.484Z,27.85
2022-08-11T19:12:20.679Z,27.79
2022-08-11T19:15:09.373Z,27.74
2022-08-11T19:18:01.184Z,27.68
2022-08-11T19:20:49.987Z,27.59
2022-08-11T19:23:39.872Z,27.46
2022-08-11T19:26:28.196Z,27.38
2022-08-11T19:30:06.982Z,27.29
2022-08-11T19:32:27.245Z,27.24
2022-08-11T19:35:18.012Z,27.15
2022-08-11T19:38:09.879Z,27.08
2022-08-11T19:40:58.617Z,27.04
2022-08-11T19:43:47.133Z,27.02
2022-08-11T19:46:37.611Z,26.94
2022-08-11T19:49:26.042Z,26.86
2022-08-11T19:52:14.731Z,26.83
2022-08-11T19:55:02.998Z,26.80
2022-08-11T19:57:51.486Z,26.77
2022-08-11T20:00:39.980Z,26.76
2022-08-11T20:03:30.321Z,26.76
2022-08-11T20:06:19.947Z,26.70
2022-08-11T20:09:09.903Z,26.69
2022-08-11T20:11:58.757Z,26.71
2022-08-11T20:14:47.297Z,26.68
2022-08-11T20:17:36.740Z,26.67
2022-08-11T20:20:27.814Z,26.61
2022-08-11T20:23:17.479Z,26.55
2022-08-11T20:29:18.136Z,26.47
2022-08-11T20:32:09.659Z,26.47
2022-08-11T20:35:00.753Z,26.44
2022-08-11T20:37:51.237Z,26.44
2022-08-11T20:40:45.251Z,26.40
2022-08-11T20:44:08.136Z,26.37
2022-08-11T20:46:42.408Z,26.34
2022-08-11T20:49:44.359Z,26.33
2022-08-11T20:52:39.730Z,26.36
2022-08-11T20:55:46.163Z,26.41
2022-08-11T21:01:53.476Z,26.47
2022-08-11T21:04:53.926Z,26.48
2022-08-11T21:07:50.302Z,26.46
2022-08-11T21:10:52.681Z,26.44
2022-08-11T21:13:42.047Z,26.37
2022-08-11T21:16:31.689Z,26.35
2022-08-11T21:20:01.556Z,26.34
2022-08-11T21:22:32.900Z,26.34
2022-08-11T21:25:23.088Z,26.31
2022-08-11T21:28:11.186Z,26.25
2022-08-11T21:30:59.539Z,26.20
2022-08-11T21:33:50.850Z,26.14
2022-08-11T21:36:39.193Z,26.08
2022-08-11T21:39:27.893Z,26.09
2022-08-11T21:42:18.641Z,26.06
2022-08-11T21:45:07.047Z,26.02
2022-08-11T21:48:01.003Z,26.00
2022-08-11T21:50:49.462Z,26.02
2022-08-11T21:53:37.855Z,26.03
2022-08-11T21:56:27.653Z,26.03
2022-08-11T21:59:18.056Z,26.03
2022-08-11T22:02:10.559Z,26.01
2022-08-11T22:05:01.102Z,25.99
2022-08-11T22:07:49.664Z,25.89
2022-08-11T22:10:43.163Z,25.86
2022-08-11T22:13:33.526Z,25.85
2022-08-11T22:16:24.863Z,25.80
2022-08-11T22:19:17.907Z,25.77
2022-08-11T22:22:06.200Z,25.71
2022-08-11T22:24:56.582Z,25.68
2022-08-11T22:27:46.153Z,25.58
2022-08-11T22:30:34.676Z,25.49
2022-08-11T22:33:24.364Z,25.42
2022-08-11T22:36:19.305Z,25.35
2022-08-11T22:39:07.453Z,25.30
2022-08-11T22:41:59.158Z,25.23
2022-08-11T22:44:48.761Z,25.16
2022-08-11T22:47:40.743Z,25.15
2022-08-11T22:50:31.207Z,25.08
2022-08-11T22:53:19.367Z,25.05
2022-08-11T22:56:07.804Z,25.02
2022-08-11T22:58:56.127Z,24.98
2022-08-11T23:01:55.521Z,24.95
2022-08-11T23:04:53.309Z,24.95
2022-08-11T23:07:51.354Z,24.96
2022-08-11T23:10:45.425Z,24.90
2022-08-11T23:13:33.834Z,24.85
2022-08-11T23:16:22.714Z,24.80
2022-08-11T23:20:01.568Z,24.70
2022-08-11T23:22:24.553Z,24.61
2022-08-11T23:25:38.109Z,24.55
2022-08-11T23:28:26.645Z,24.56
2022-08-11T23:31:15.596Z,24.57
2022-08-11T23:34:05.391Z,24.59
2022-08-11T23:36:56.057Z,24.61
2022-08-11T23:39:44.688Z,24.62
2022-08-11T23:42:33.037Z,24.61
2022-08-11T23:45:25.249Z,24.60
2022-08-11T23:48:14.668Z,24.61
2022-08-11T23:51:03.045Z,24.62
2022-08-11T23:53:51.491Z,24.64
2022-08-11T23:56:40.016Z,24.58
2022-08-11T23:59:28.342Z,24.51
